Time;durP1;ratioP1;P1;durP2;ratioP2;P2;SDS_P1;SDS_P2;PMS_P1;PMS_P2;Temp;Humidity;BMP_temperature;BMP_pressure;BME280_temperature;BME280_humidity;BME280_pressure;Samples;Min_cycle;Max_cycle;Signal;HPM_P1;HPM_P2
2023/05/20 00:00:32;;;;;;;15.45;6.30;;;10.90;99.90;;;;;;5060792;28;20074;-64
2023/05/20 00:02:59;;;;;;;13.00;6.20;;;10.90;99.90;;;;;;5061165;28;20127;-67
2023/05/20 00:05:25;;;;;;;15.57;6.50;;;10.90;99.90;;;;;;5060338;28;20477;-67
2023/05/20 00:07:51;;;;;;;16.15;6.65;;;10.90;99.90;;;;;;5060975;28;20044;-67
2023/05/20 00:10:17;;;;;;;14.57;6.32;;;10.90;99.90;;;;;;5060981;28;20090;-68
2023/05/20 00:12:43;;;;;;;15.80;6.57;;;10.90;99.90;;;;;;5059029;28;20048;-68
2023/05/20 00:15:10;;;;;;;15.90;6.35;;;10.90;99.90;;;;;;5043256;28;20048;-68
2023/05/20 00:17:36;;;;;;;17.83;6.50;;;10.90;99.90;;;;;;5060498;28;20041;-69
2023/05/20 00:20:04;;;;;;;15.73;7.60;;;10.80;99.90;;;;;;5060435;28;20119;-68
2023/05/20 00:22:30;;;;;;;14.07;6.38;;;10.80;99.90;;;;;;5044017;28;20395;-68
2023/05/20 00:24:56;;;;;;;21.25;6.68;;;10.80;99.90;;;;;;5043844;28;20120;-65
2023/05/20 00:27:21;;;;;;;17.23;7.07;;;10.80;99.90;;;;;;5059995;28;20135;-68
2023/05/20 00:29:47;;;;;;;21.33;7.30;;;10.80;99.90;;;;;;5062331;28;20036;-69
2023/05/20 00:32:13;;;;;;;16.15;6.53;;;10.80;99.90;;;;;;5059216;28;20415;-68
2023/05/20 00:34:39;;;;;;;17.48;6.05;;;10.70;99.90;;;;;;5045816;28;20560;-69
2023/05/20 00:37:05;;;;;;;17.58;7.22;;;10.70;99.90;;;;;;5057775;28;20075;-67
2023/05/20 00:39:30;;;;;;;17.92;6.55;;;10.70;99.90;;;;;;5059563;28;20039;-67
2023/05/20 00:41:59;;;;;;;19.30;7.18;;;10.70;99.90;;;;;;5042072;28;20399;-66
2023/05/20 00:44:25;;;;;;;18.70;7.43;;;10.70;99.90;;;;;;5058321;28;20080;-65
2023/05/20 00:46:52;;;;;;;16.88;7.07;;;10.70;99.90;;;;;;5058844;28;20064;-68
2023/05/20 00:49:18;;;;;;;14.60;7.50;;;10.60;99.90;;;;;;5044311;28;20961;-68
2023/05/20 00:51:44;;;;;;;16.27;7.18;;;10.60;99.90;;;;;;5059454;28;20472;-67
2023/05/20 00:54:10;;;;;;;18.38;6.88;;;10.60;99.90;;;;;;5060274;28;20110;-69
2023/05/20 00:56:36;;;;;;;14.73;6.25;;;10.60;99.90;;;;;;5059117;28;20048;-65
2023/05/20 00:59:02;;;;;;;15.23;6.47;;;10.60;99.90;;;;;;5044300;28;20107;-67
2023/05/20 01:01:28;;;;;;;15.25;6.88;;;10.60;99.90;;;;;;5062199;28;20471;-67
2023/05/20 01:03:53;;;;;;;19.15;7.00;;;10.60;99.90;;;;;;5046856;28;20474;-68
2023/05/20 01:06:19;;;;;;;19.33;6.82;;;10.60;99.90;;;;;;5062946;28;20400;-66
2023/05/20 01:08:45;;;;;;;16.10;6.70;;;10.60;99.90;;;;;;5063397;28;20086;-69
2023/05/20 01:11:24;;;;;;;19.27;6.80;;;10.60;99.90;;;;;;5063402;28;20590;-69
2023/05/20 01:13:55;;;;;;;12.98;6.32;;;10.60;99.90;;;;;;5064385;28;20036;-67
2023/05/20 01:16:23;;;;;;;17.15;6.60;;;10.50;99.90;;;;;;5044409;28;20113;-66
2023/05/20 01:18:54;;;;;;;15.98;7.00;;;10.60;99.90;;;;;;5044793;28;20056;-68
2023/05/20 01:21:23;;;;;;;17.25;6.40;;;10.60;99.90;;;;;;5046473;28;20051;-67
2023/05/20 01:23:48;;;;;;;14.95;6.15;;;10.50;99.90;;;;;;5061663;28;20524;-67
2023/05/20 01:26:14;;;;;;;14.57;6.72;;;10.50;99.90;;;;;;5061997;28;20048;-67
2023/05/20 01:28:44;;;;;;;13.68;6.40;;;10.50;99.90;;;;;;5046256;28;20645;-69
2023/05/20 01:31:26;;;;;;;18.65;6.10;;;10.50;99.90;;;;;;5061230;28;21141;-70
2023/05/20 01:33:56;;;;;;;14.30;5.68;;;10.50;99.90;;;;;;5046686;28;20079;-68
2023/05/20 01:36:23;;;;;;;12.30;5.82;;;10.50;99.90;;;;;;5063489;28;20044;-68
2023/05/20 01:38:50;;;;;;;13.23;6.00;;;10.50;99.90;;;;;;5062065;28;20139;-70
2023/05/20 01:41:16;;;;;;;14.80;6.45;;;10.40;99.90;;;;;;5061601;28;20590;-72
2023/05/20 01:43:43;;;;;;;13.30;6.10;;;10.40;99.90;;;;;;5063301;28;20036;-71
2023/05/20 01:46:08;;;;;;;14.07;6.05;;;10.40;99.90;;;;;;5062113;28;20074;-71
2023/05/20 01:48:34;;;;;;;16.88;6.90;;;10.40;99.90;;;;;;5062499;28;20039;-70
2023/05/20 01:51:00;;;;;;;14.55;6.00;;;10.40;99.90;;;;;;5045327;28;20064;-67
2023/05/20 01:53:26;;;;;;;19.10;7.05;;;10.40;99.90;;;;;;5062841;28;20071;-67
2023/05/20 01:55:51;;;;;;;17.27;6.57;;;10.40;99.90;;;;;;5061029;28;20049;-70
2023/05/20 01:58:17;;;;;;;13.82;6.38;;;10.30;99.90;;;;;;5044282;28;20251;-67
2023/05/20 02:00:43;;;;;;;16.73;6.45;;;10.30;99.90;;;;;;5059332;28;20052;-70
2023/05/20 02:03:10;;;;;;;16.90;6.80;;;10.30;99.90;;;;;;5061554;28;20044;-69
2023/05/20 02:05:35;;;;;;;14.23;6.38;;;10.30;99.90;;;;;;5045502;28;20037;-69
2023/05/20 02:08:01;;;;;;;17.08;5.97;;;10.30;99.90;;;;;;5062920;28;20047;-70
2023/05/20 02:10:27;;;;;;;15.27;6.53;;;10.30;99.90;;;;;;5062707;28;20431;-69
2023/05/20 02:12:52;;;;;;;16.48;6.20;;;10.20;99.90;;;;;;5060287;28;20036;-67
2023/05/20 02:15:18;;;;;;;16.65;6.57;;;10.20;99.90;;;;;;5045907;28;20040;-70
2023/05/20 02:17:45;;;;;;;13.40;6.22;;;10.20;99.90;;;;;;5062182;28;20033;-67
2023/05/20 02:20:12;;;;;;;15.65;6.47;;;10.20;99.90;;;;;;5062751;28;20451;-67
2023/05/20 02:22:38;;;;;;;12.93;6.55;;;10.20;99.90;;;;;;5046442;28;20724;-70
2023/05/20 02:25:04;;;;;;;20.42;6.07;;;10.20;99.90;;;;;;5059463;28;20047;-70
2023/05/20 02:27:30;;;;;;;15.35;6.63;;;10.20;99.90;;;;;;5044216;28;20458;-68
2023/05/20 02:29:56;;;;;;;18.08;6.55;;;10.20;99.90;;;;;;5044774;28;20032;-68
2023/05/20 02:32:26;;;;;;;11.85;6.07;;;10.20;99.90;;;;;;5060629;28;20040;-69
2023/05/20 02:34:53;;;;;;;15.43;6.40;;;10.20;99.90;;;;;;5062056;28;20036;-68
2023/05/20 02:37:19;;;;;;;14.82;7.20;;;10.20;99.90;;;;;;5061839;28;20040;-68
2023/05/20 02:39:45;;;;;;;13.13;6.43;;;10.20;99.90;;;;;;5061373;28;20118;-68
2023/05/20 02:42:11;;;;;;;16.15;6.15;;;10.20;99.90;;;;;;5078072;28;20041;-69
2023/05/20 02:44:36;;;;;;;13.15;6.03;;;10.20;99.90;;;;;;5062672;28;20041;-68
2023/05/20 02:47:02;;;;;;;11.77;5.75;;;10.30;99.90;;;;;;5060097;28;20097;-69
2023/05/20 02:49:28;;;;;;;17.67;6.03;;;10.20;99.90;;;;;;5063729;28;20474;-67
2023/05/20 02:51:54;;;;;;;15.05;6.05;;;10.20;99.90;;;;;;5061890;28;20044;-70
2023/05/20 02:54:20;;;;;;;13.27;5.60;;;10.30;99.90;;;;;;5043566;28;20487;-68
2023/05/20 02:56:46;;;;;;;14.05;5.55;;;10.30;99.90;;;;;;5057989;28;20063;-69
2023/05/20 02:59:11;;;;;;;11.52;5.45;;;10.30;99.90;;;;;;5044334;28;20048;-68
2023/05/20 03:01:39;;;;;;;12.55;4.85;;;10.30;99.90;;;;;;5045431;28;20052;-69
2023/05/20 03:04:05;;;;;;;13.75;5.13;;;10.30;99.90;;;;;;5061358;28;20049;-68
2023/05/20 03:06:31;;;;;;;11.70;4.85;;;10.30;99.90;;;;;;5076959;28;20051;-69
2023/05/20 03:08:57;;;;;;;14.52;5.13;;;10.30;99.90;;;;;;5060776;28;20036;-68
2023/05/20 03:11:23;;;;;;;12.35;4.90;;;10.30;99.90;;;;;;5091497;28;20032;-70
2023/05/20 03:13:49;;;;;;;11.20;4.40;;;10.30;99.90;;;;;;5044661;28;20040;-68
2023/05/20 03:16:15;;;;;;;11.30;4.55;;;10.30;99.90;;;;;;5057730;28;20036;-68
2023/05/20 03:18:41;;;;;;;13.85;5.25;;;10.40;99.90;;;;;;5061515;28;20040;-68
2023/05/20 03:21:07;;;;;;;10.65;4.72;;;10.40;99.90;;;;;;5060727;28;20036;-70
2023/05/20 03:23:33;;;;;;;9.90;4.40;;;10.40;99.90;;;;;;5061537;28;20043;-69
2023/05/20 03:25:59;;;;;;;12.45;4.63;;;10.40;99.90;;;;;;5044375;28;20416;-68
2023/05/20 03:28:25;;;;;;;12.02;4.32;;;10.40;99.90;;;;;;5060723;28;20033;-68
2023/05/20 03:30:51;;;;;;;10.85;4.22;;;10.40;99.90;;;;;;5059190;28;20032;-68
2023/05/20 03:33:16;;;;;;;9.15;4.50;;;10.40;99.90;;;;;;5061523;28;20043;-69
2023/05/20 03:35:42;;;;;;;11.82;3.88;;;10.40;99.90;;;;;;5044306;28;20040;-70
2023/05/20 03:38:08;;;;;;;10.25;4.65;;;10.40;99.90;;;;;;5044407;28;20040;-70
2023/05/20 03:40:34;;;;;;;13.25;4.32;;;10.50;99.90;;;;;;5061184;28;20547;-70
2023/05/20 03:43:00;;;;;;;12.38;3.67;;;10.50;99.90;;;;;;5061198;28;20155;-71
2023/05/20 03:45:25;;;;;;;10.13;4.03;;;10.50;99.90;;;;;;5043298;28;20071;-67
2023/05/20 03:47:51;;;;;;;8.35;3.75;;;10.50;99.90;;;;;;5061302;28;20070;-69
2023/05/20 03:50:17;;;;;;;9.68;3.72;;;10.50;99.90;;;;;;5062077;28;20040;-68
2023/05/20 03:52:43;;;;;;;7.50;3.83;;;10.50;99.90;;;;;;5049015;28;20047;-72
2023/05/20 03:55:09;;;;;;;8.82;3.65;;;10.60;99.90;;;;;;5059823;28;20043;-68
2023/05/20 03:57:35;;;;;;;8.18;3.08;;;10.60;99.90;;;;;;5059198;28;20087;-67
2023/05/20 04:00:04;;;;;;;7.43;3.83;;;10.60;99.90;;;;;;5060402;28;20041;-69
2023/05/20 04:02:30;;;;;;;7.65;3.58;;;10.60;99.90;;;;;;5059930;28;20048;-69
2023/05/20 04:04:56;;;;;;;7.78;3.40;;;10.60;99.90;;;;;;5061272;28;20037;-68
2023/05/20 04:07:22;;;;;;;7.38;3.33;;;10.60;99.90;;;;;;5044102;28;20033;-68
2023/05/20 04:09:48;;;;;;;8.25;3.25;;;10.70;99.90;;;;;;5061609;28;20043;-69
2023/05/20 04:12:14;;;;;;;8.20;3.05;;;10.70;99.90;;;;;;5059443;28;20036;-68
2023/05/20 04:14:41;;;;;;;7.88;3.13;;;10.70;99.90;;;;;;5044719;28;20040;-68
2023/05/20 04:17:06;;;;;;;8.07;3.03;;;10.70;99.90;;;;;;5061190;28;20068;-67
2023/05/20 04:19:33;;;;;;;6.90;3.00;;;10.80;99.90;;;;;;5061500;28;21281;-68
2023/05/20 04:22:00;;;;;;;9.38;3.20;;;10.80;99.90;;;;;;5076112;28;20040;-70
2023/05/20 04:24:26;;;;;;;10.00;3.25;;;10.80;99.90;;;;;;5044370;28;20047;-66
2023/05/20 04:26:52;;;;;;;10.20;3.03;;;10.90;99.90;;;;;;5059552;28;20040;-70
2023/05/20 04:29:18;;;;;;;7.82;3.03;;;10.90;99.90;;;;;;5043482;28;20403;-70
2023/05/20 04:31:46;;;;;;;8.25;2.90;;;10.90;99.90;;;;;;5056452;28;20097;-67
2023/05/20 04:34:13;;;;;;;5.93;2.60;;;11.00;99.90;;;;;;5075710;28;20036;-68
2023/05/20 04:36:39;;;;;;;7.40;2.70;;;11.00;99.90;;;;;;5064283;28;20040;-70
2023/05/20 04:39:06;;;;;;;8.07;2.90;;;11.00;99.90;;;;;;5046485;28;20036;-71
2023/05/20 04:41:32;;;;;;;8.15;2.65;;;11.00;99.90;;;;;;5044927;28;20610;-69
2023/05/20 04:44:01;;;;;;;7.97;2.40;;;11.10;99.90;;;;;;5047474;28;20029;-70
2023/05/20 04:46:27;;;;;;;7.45;2.50;;;11.10;99.90;;;;;;5061948;28;20040;-70
2023/05/20 04:48:53;;;;;;;7.40;2.67;;;11.10;99.90;;;;;;5048731;28;20044;-67
2023/05/20 04:51:19;;;;;;;8.93;2.58;;;11.10;99.90;;;;;;5047145;28;20400;-69
2023/05/20 04:53:44;;;;;;;8.10;2.40;;;11.10;99.90;;;;;;5064507;28;20028;-71
2023/05/20 04:56:11;;;;;;;7.68;2.70;;;11.10;99.90;;;;;;5062153;28;20040;-70
2023/05/20 04:58:36;;;;;;;7.88;2.97;;;11.10;99.90;;;;;;5047188;28;20095;-69
2023/05/20 05:01:02;;;;;;;9.30;2.40;;;11.10;99.90;;;;;;5063258;28;20068;-70
2023/05/20 05:03:28;;;;;;;7.13;2.50;;;11.10;99.90;;;;;;5065295;28;20106;-69
2023/05/20 05:05:57;;;;;;;9.23;2.60;;;11.10;99.90;;;;;;5064423;28;20064;-70
2023/05/20 05:08:23;;;;;;;6.68;2.28;;;11.10;99.90;;;;;;5062133;28;20040;-67
2023/05/20 05:10:49;;;;;;;5.75;2.60;;;11.10;99.90;;;;;;5045888;28;20123;-68
2023/05/20 05:13:15;;;;;;;8.63;2.58;;;11.10;99.90;;;;;;5046580;28;20036;-67
2023/05/20 05:15:40;;;;;;;7.65;2.42;;;11.10;99.90;;;;;;5062585;28;20553;-67
2023/05/20 05:18:06;;;;;;;8.02;2.70;;;11.10;99.90;;;;;;5063680;28;20032;-66
2023/05/20 05:20:31;;;;;;;12.77;2.63;;;11.20;99.90;;;;;;5064086;28;20051;-67
2023/05/20 05:22:57;;;;;;;8.50;2.22;;;11.50;99.90;;;;;;5063265;28;20045;-67
2023/05/20 05:25:23;;;;;;;5.18;2.20;;;12.20;99.90;;;;;;5063793;28;20033;-65
2023/05/20 05:27:49;;;;;;;5.20;2.30;;;12.70;99.90;;;;;;5062034;28;20659;-72
2023/05/20 05:30:15;;;;;;;6.80;2.30;;;13.30;99.90;;;;;;5061920;28;20043;-70
2023/05/20 05:32:41;;;;;;;8.40;2.50;;;13.50;99.90;;;;;;5062210;28;20051;-70
2023/05/20 05:35:07;;;;;;;7.28;2.20;;;13.70;99.90;;;;;;5063912;28;20044;-69
2023/05/20 05:37:32;;;;;;;8.15;2.10;;;14.20;99.90;;;;;;5065184;28;20544;-67
2023/05/20 05:39:58;;;;;;;6.40;2.15;;;14.20;99.90;;;;;;5060330;28;20048;-66
2023/05/20 05:42:24;;;;;;;5.68;1.95;;;14.10;99.90;;;;;;5060593;28;20097;-64
2023/05/20 05:44:50;;;;;;;6.85;2.25;;;14.30;99.90;;;;;;5047433;28;20044;-66
2023/05/20 05:47:16;;;;;;;8.23;2.17;;;14.20;99.90;;;;;;5061376;28;20086;-69
2023/05/20 05:49:42;;;;;;;6.80;1.92;;;14.30;99.90;;;;;;5064558;28;20032;-69
2023/05/20 05:52:08;;;;;;;5.75;1.83;;;14.40;99.90;;;;;;5062277;28;20051;-66
2023/05/20 05:54:33;;;;;;;6.30;2.22;;;14.50;99.90;;;;;;5046433;28;20032;-67
2023/05/20 05:56:59;;;;;;;7.20;1.80;;;14.40;99.90;;;;;;5060321;28;20052;-64
2023/05/20 05:59:25;;;;;;;6.10;2.15;;;14.30;99.90;;;;;;5061985;28;20419;-69
2023/05/20 06:01:50;;;;;;;4.70;1.80;;;14.20;99.90;;;;;;5060552;28;20098;-69
2023/05/20 06:04:16;;;;;;;6.53;1.83;;;14.10;99.90;;;;;;5062751;28;20102;-67
2023/05/20 06:06:42;;;;;;;6.75;1.73;;;14.00;99.90;;;;;;5044681;28;20036;-66
2023/05/20 06:09:07;;;;;;;6.38;1.80;;;14.00;99.90;;;;;;5063111;28;20110;-69
2023/05/20 06:11:33;;;;;;;6.22;1.92;;;13.90;99.90;;;;;;5062301;28;20043;-67
2023/05/20 06:13:59;;;;;;;6.53;1.80;;;13.90;99.90;;;;;;5045412;28;20090;-70
2023/05/20 06:16:25;;;;;;;8.23;1.77;;;13.90;99.90;;;;;;5061029;28;20040;-68
2023/05/20 06:18:52;;;;;;;6.97;2.17;;;13.80;99.90;;;;;;5062162;28;20488;-67
2023/05/20 06:21:17;;;;;;;6.55;1.75;;;13.80;99.90;;;;;;5062647;28;20374;-67
2023/05/20 06:23:43;;;;;;;4.80;1.60;;;13.80;99.90;;;;;;5078045;28;20123;-70
2023/05/20 06:26:08;;;;;;;4.45;1.80;;;13.70;99.90;;;;;;5060036;28;20133;-64
2023/05/20 06:28:34;;;;;;;4.43;1.60;;;13.70;99.90;;;;;;5060927;28;20037;-70
2023/05/20 06:31:00;;;;;;;6.65;2.00;;;13.70;99.90;;;;;;5059235;28;20115;-65
2023/05/20 06:33:27;;;;;;;7.43;1.90;;;13.70;99.90;;;;;;5045580;28;20123;-68
2023/05/20 06:35:53;;;;;;;6.25;2.15;;;13.80;99.90;;;;;;5063488;28;20044;-70
2023/05/20 06:38:19;;;;;;;5.78;1.80;;;13.70;99.90;;;;;;5062538;28;20115;-69
2023/05/20 06:40:46;;;;;;;6.15;1.77;;;13.70;99.90;;;;;;5060430;28;20162;-66
2023/05/20 06:43:12;;;;;;;5.35;1.73;;;13.70;99.90;;;;;;5061684;28;20051;-67
2023/05/20 06:45:37;;;;;;;5.97;1.75;;;13.70;99.90;;;;;;5060966;28;20037;-70
2023/05/20 06:48:03;;;;;;;6.80;1.90;;;13.80;99.90;;;;;;5062424;28;20060;-73
2023/05/20 06:50:29;;;;;;;7.32;1.92;;;13.70;99.90;;;;;;5062908;28;20466;-67
2023/05/20 06:52:54;;;;;;;6.38;1.70;;;13.80;99.90;;;;;;5062359;28;20407;-67
2023/05/20 06:55:20;;;;;;;8.02;2.10;;;13.90;99.90;;;;;;5079135;28;20301;-68
2023/05/20 06:57:46;;;;;;;6.88;2.15;;;14.00;99.90;;;;;;5058799;28;20044;-72
2023/05/20 07:00:14;;;;;;;6.43;1.75;;;14.00;99.90;;;;;;5061543;28;20045;-67
2023/05/20 07:02:41;;;;;;;6.03;2.25;;;14.10;99.90;;;;;;5043260;28;20557;-64
2023/05/20 07:05:07;;;;;;;4.93;1.75;;;14.10;99.90;;;;;;5063565;28;20068;-69
2023/05/20 07:07:33;;;;;;;5.75;1.77;;;14.00;99.90;;;;;;5060219;28;20074;-68
2023/05/20 07:09:58;;;;;;;4.28;1.83;;;14.00;99.90;;;;;;5044331;28;21259;-68
2023/05/20 07:12:24;;;;;;;8.30;1.83;;;14.00;99.90;;;;;;5061204;28;20575;-68
2023/05/20 07:14:49;;;;;;;6.30;1.90;;;14.00;99.90;;;;;;5059423;28;20093;-72
2023/05/20 07:17:15;;;;;;;8.77;1.83;;;14.00;99.90;;;;;;5061255;28;20033;-65
2023/05/20 07:19:41;;;;;;;5.88;1.70;;;14.10;99.90;;;;;;5059561;28;20273;-68
2023/05/20 07:22:07;;;;;;;6.28;2.00;;;14.20;99.90;;;;;;5060352;28;20479;-65
2023/05/20 07:24:32;;;;;;;5.05;2.05;;;14.20;99.90;;;;;;5042628;28;20051;-68
2023/05/20 07:26:58;;;;;;;6.22;1.95;;;14.20;99.90;;;;;;5056962;28;20395;-68
2023/05/20 07:29:24;;;;;;;7.57;2.08;;;14.20;99.90;;;;;;5077964;28;20623;-71
2023/05/20 07:31:50;;;;;;;6.15;2.40;;;14.20;99.90;;;;;;5060372;28;20083;-67
2023/05/20 07:34:15;;;;;;;6.20;2.17;;;14.20;99.90;;;;;;5061888;28;20052;-64
2023/05/20 07:36:42;;;;;;;7.35;1.92;;;14.20;99.90;;;;;;5058791;28;20161;-64
2023/05/20 07:39:09;;;;;;;8.07;2.25;;;14.20;99.90;;;;;;5061830;28;20051;-65
2023/05/20 07:41:35;;;;;;;8.98;2.50;;;14.30;99.90;;;;;;5076210;28;20098;-69
2023/05/20 07:44:03;;;;;;;5.38;2.15;;;14.40;99.90;;;;;;5042395;28;20048;-67
2023/05/20 07:46:29;;;;;;;5.28;1.63;;;14.50;99.90;;;;;;5060693;28;20717;-70
2023/05/20 07:48:54;;;;;;;6.97;2.00;;;14.60;99.90;;;;;;5063639;28;20044;-69
2023/05/20 07:51:20;;;;;;;7.53;2.60;;;14.60;99.90;;;;;;5061780;28;20499;-63
2023/05/20 07:53:46;;;;;;;6.30;2.10;;;14.50;99.90;;;;;;5062635;28;20044;-66
2023/05/20 07:56:11;;;;;;;10.77;2.40;;;14.60;99.90;;;;;;5057747;28;20786;-65
2023/05/20 07:58:40;;;;;;;7.47;2.25;;;14.60;99.90;;;;;;5063241;28;20052;-64
2023/05/20 08:01:08;;;;;;;11.85;2.35;;;14.70;99.90;;;;;;5057787;28;20040;-66
2023/05/20 08:03:36;;;;;;;6.10;2.20;;;14.80;99.90;;;;;;5045153;28;20045;-63
2023/05/20 08:06:02;;;;;;;7.25;2.20;;;14.90;99.90;;;;;;5043333;28;20045;-64
2023/05/20 08:08:29;;;;;;;7.13;1.98;;;15.10;99.90;;;;;;5043259;28;20044;-66
2023/05/20 08:10:55;;;;;;;6.43;2.20;;;15.20;99.90;;;;;;5045850;28;21882;-69
2023/05/20 08:13:21;;;;;;;6.80;2.15;;;15.20;99.90;;;;;;5053094;28;20037;-67
2023/05/20 08:15:47;;;;;;;6.88;2.30;;;15.20;99.90;;;;;;5063964;28;20036;-65
2023/05/20 08:18:16;;;;;;;7.30;2.15;;;15.30;99.90;;;;;;5067120;28;20040;-67
2023/05/20 08:20:42;;;;;;;13.02;2.40;;;15.40;99.90;;;;;;5053011;28;20033;-64
2023/05/20 08:23:08;;;;;;;10.52;3.25;;;15.40;99.90;;;;;;5063591;28;20048;-66
2023/05/20 08:25:33;;;;;;;6.20;2.33;;;15.40;99.90;;;;;;5064695;28;20040;-66
2023/05/20 08:28:05;;;;;;;5.97;2.47;;;15.50;99.90;;;;;;5061884;28;20416;-65
2023/05/20 08:30:34;;;;;;;6.35;2.28;;;15.60;99.90;;;;;;5065578;28;20137;-67
2023/05/20 08:33:00;;;;;;;5.15;2.33;;;15.60;99.90;;;;;;5048139;28;20056;-65
2023/05/20 08:35:26;;;;;;;5.45;2.03;;;15.60;99.90;;;;;;5063834;28;20077;-71
2023/05/20 08:37:52;;;;;;;7.57;2.45;;;15.70;99.90;;;;;;5047092;28;20522;-68
2023/05/20 08:40:19;;;;;;;7.80;2.60;;;15.80;99.90;;;;;;5064567;28;20084;-68
2023/05/20 08:42:47;;;;;;;8.77;2.40;;;15.80;99.90;;;;;;5048863;28;20519;-65
2023/05/20 08:45:16;;;;;;;6.30;2.30;;;15.80;99.90;;;;;;5047401;28;20051;-65
2023/05/20 08:47:42;;;;;;;8.95;2.63;;;15.90;99.90;;;;;;5048954;28;20044;-68
2023/05/20 08:50:12;;;;;;;7.65;3.08;;;16.10;99.90;;;;;;5067368;28;20028;-65
2023/05/20 08:52:50;;;;;;;8.23;2.65;;;16.20;99.90;;;;;;5066176;28;20051;-65
2023/05/20 08:55:28;;;;;;;7.47;2.60;;;16.30;99.90;;;;;;5050415;28;20457;-68
2023/05/20 08:57:54;;;;;;;6.40;2.40;;;16.30;99.90;;;;;;5045969;28;20114;-69
2023/05/20 09:00:25;;;;;;;7.25;2.80;;;16.30;99.90;;;;;;5066822;28;20052;-71
2023/05/20 09:02:52;;;;;;;8.68;2.83;;;16.20;99.90;;;;;;5047086;28;20427;-69
2023/05/20 09:05:18;;;;;;;9.50;2.75;;;16.40;99.90;;;;;;5046617;28;20404;-67
2023/05/20 09:07:44;;;;;;;5.97;2.30;;;16.50;99.90;;;;;;5029378;28;20488;-67
2023/05/20 09:10:10;;;;;;;10.45;2.78;;;16.50;99.90;;;;;;5061995;28;20508;-70
2023/05/20 09:12:37;;;;;;;6.80;2.80;;;16.60;99.90;;;;;;5041313;28;20041;-66
2023/05/20 09:15:03;;;;;;;11.55;2.67;;;16.60;99.90;;;;;;5046612;28;20620;-65
2023/05/20 09:17:29;;;;;;;7.13;3.00;;;16.70;99.90;;;;;;5045569;28;20048;-70
2023/05/20 09:19:55;;;;;;;6.85;2.60;;;16.70;99.90;;;;;;5046784;28;20052;-67
2023/05/20 09:22:22;;;;;;;12.65;2.45;;;16.70;99.90;;;;;;5063864;28;20411;-69
2023/05/20 09:24:50;;;;;;;6.65;2.50;;;16.70;99.30;;;;;;5048379;28;20540;-63
2023/05/20 09:27:15;;;;;;;5.70;2.60;;;16.80;99.50;;;;;;5050422;28;20086;-68
2023/05/20 09:29:42;;;;;;;8.30;2.45;;;17.00;99.30;;;;;;5046616;28;20033;-68
2023/05/20 09:32:09;;;;;;;8.10;2.45;;;17.10;98.60;;;;;;5047166;28;20037;-66
2023/05/20 09:34:36;;;;;;;8.13;2.72;;;17.20;97.90;;;;;;5047023;28;20040;-67
2023/05/20 09:37:02;;;;;;;7.10;2.55;;;17.10;98.10;;;;;;5046858;28;20091;-67
2023/05/20 09:39:35;;;;;;;6.57;2.70;;;17.10;98.00;;;;;;5047453;28;20053;-64
2023/05/20 09:42:05;;;;;;;6.15;2.35;;;17.20;97.40;;;;;;5045837;28;20044;-67
2023/05/20 09:44:32;;;;;;;8.00;2.40;;;17.20;97.90;;;;;;5046283;28;20558;-66
2023/05/20 09:46:59;;;;;;;7.07;2.65;;;17.10;98.00;;;;;;5047940;28;20044;-69
2023/05/20 09:49:27;;;;;;;6.63;2.47;;;17.20;97.60;;;;;;5066530;28;20037;-68
2023/05/20 09:51:53;;;;;;;9.15;2.95;;;17.40;98.90;;;;;;5051011;28;20095;-67
2023/05/20 09:54:20;;;;;;;13.18;2.80;;;17.60;98.20;;;;;;5047187;28;20033;-67
2023/05/20 09:56:46;;;;;;;7.63;2.55;;;17.60;97.40;;;;;;5046609;28;20079;-66
2023/05/20 09:59:15;;;;;;;6.53;2.63;;;17.50;97.50;;;;;;5030664;28;20052;-65
2023/05/20 10:01:41;;;;;;;7.18;2.60;;;17.50;97.80;;;;;;5057342;28;20295;-66
2023/05/20 10:04:08;;;;;;;7.93;2.70;;;17.60;98.50;;;;;;5046084;28;20429;-67
2023/05/20 10:07:21;;;;;;;9.73;3.05;;;17.50;97.80;;;;;;5044990;28;20041;-64
2023/05/20 10:09:56;;;;;;;5.55;2.88;;;17.60;97.30;;;;;;5046850;28;20065;-64
2023/05/20 10:12:33;;;;;;;8.10;3.00;;;17.60;97.60;;;;;;5044644;28;20045;-69
2023/05/20 10:15:33;;;;;;;6.88;2.90;;;17.60;97.20;;;;;;5045792;28;20127;-62
2023/05/20 10:18:23;;;;;;;8.55;2.40;;;17.70;97.00;;;;;;5046872;28;20071;-66
2023/05/20 10:20:50;;;;;;;8.35;2.42;;;17.60;97.30;;;;;;5045766;28;20543;-69
2023/05/20 10:23:23;;;;;;;7.30;3.00;;;17.70;97.60;;;;;;5044689;28;20136;-64
2023/05/20 10:25:53;;;;;;;9.43;2.70;;;17.70;97.40;;;;;;5058996;28;20075;-65
2023/05/20 10:28:30;;;;;;;9.98;3.08;;;17.80;97.80;;;;;;5044987;28;20310;-67
2023/05/20 10:30:57;;;;;;;6.43;2.92;;;17.60;96.80;;;;;;5068492;28;20050;-66
2023/05/20 10:33:27;;;;;;;7.07;2.53;;;17.50;96.80;;;;;;5044721;28;20041;-62
2023/05/20 10:35:58;;;;;;;8.30;3.10;;;17.50;95.80;;;;;;5044828;28;20430;-65
2023/05/20 10:38:24;;;;;;;7.97;2.80;;;17.40;95.90;;;;;;5045295;28;20299;-66
2023/05/20 10:40:50;;;;;;;7.70;2.50;;;17.40;96.10;;;;;;5027982;28;20132;-67
2023/05/20 10:43:25;;;;;;;6.90;2.90;;;17.50;95.70;;;;;;5044830;28;20128;-64
2023/05/20 10:45:56;;;;;;;5.80;2.45;;;17.70;95.90;;;;;;5045362;28;20037;-66
2023/05/20 10:48:27;;;;;;;6.72;2.70;;;17.80;95.40;;;;;;5045257;28;20044;-68
2023/05/20 10:51:02;;;;;;;7.13;2.13;;;17.80;95.60;;;;;;5045224;28;20037;-66
2023/05/20 10:53:30;;;;;;;8.07;2.88;;;17.60;96.30;;;;;;5046280;28;20056;-66
2023/05/20 10:55:55;;;;;;;7.00;2.83;;;17.60;96.40;;;;;;5047092;28;20120;-65
2023/05/20 10:58:23;;;;;;;8.25;3.30;;;17.60;96.10;;;;;;5065882;28;20125;-68
2023/05/20 11:00:52;;;;;;;7.72;2.63;;;17.60;95.60;;;;;;5045646;28;20056;-66
2023/05/20 11:03:20;;;;;;;9.27;2.85;;;17.70;96.60;;;;;;5064175;28;20510;-66
2023/05/20 11:05:47;;;;;;;5.65;2.40;;;17.70;96.10;;;;;;5064948;28;20062;-69
2023/05/20 11:08:13;;;;;;;7.22;2.83;;;17.70;95.90;;;;;;5064515;28;20499;-67
2023/05/20 11:10:39;;;;;;;8.98;2.60;;;17.60;96.10;;;;;;5065485;28;20039;-66
2023/05/20 11:13:04;;;;;;;7.90;2.78;;;17.70;96.00;;;;;;5057377;28;20791;-62
2023/05/20 11:15:32;;;;;;;6.63;2.60;;;17.70;95.50;;;;;;5063640;28;20091;-70
2023/05/20 11:18:02;;;;;;;7.15;2.55;;;17.80;95.90;;;;;;5058560;28;20051;-66
2023/05/20 11:20:28;;;;;;;8.48;2.40;;;18.00;96.10;;;;;;5062715;28;20044;-64
2023/05/20 11:22:55;;;;;;;7.10;2.65;;;18.10;96.00;;;;;;5057638;28;20185;-65
2023/05/20 11:25:22;;;;;;;13.25;2.90;;;17.90;94.80;;;;;;5066622;28;20143;-65
2023/05/20 11:27:48;;;;;;;7.97;2.67;;;17.70;95.20;;;;;;5067082;28;20384;-66
2023/05/20 11:30:15;;;;;;;5.15;2.20;;;17.60;95.30;;;;;;5059373;28;20041;-65
2023/05/20 11:32:43;;;;;;;5.78;2.20;;;17.50;96.10;;;;;;5044417;28;20040;-68
2023/05/20 11:35:22;;;;;;;9.60;2.40;;;17.50;96.10;;;;;;5052881;28;20040;-65
2023/05/20 11:38:03;;;;;;;6.25;2.45;;;17.70;94.80;;;;;;5062916;28;20048;-64
2023/05/20 11:40:31;;;;;;;7.03;2.13;;;17.90;94.10;;;;;;5058999;28;20052;-66
2023/05/20 11:42:59;;;;;;;6.65;2.10;;;18.10;93.70;;;;;;5043394;28;20132;-65
2023/05/20 11:45:26;;;;;;;7.80;2.15;;;18.20;93.60;;;;;;5043754;28;20040;-66
2023/05/20 11:48:05;;;;;;;6.45;2.35;;;18.30;93.60;;;;;;5043798;28;20091;-68
2023/05/20 11:50:39;;;;;;;7.68;2.40;;;18.50;93.10;;;;;;5044328;28;20123;-65
2023/05/20 11:53:10;;;;;;;6.20;2.17;;;18.60;92.90;;;;;;5044229;28;21190;-69
2023/05/20 11:55:48;;;;;;;5.53;2.15;;;18.60;92.40;;;;;;5027983;28;20649;-66
2023/05/20 11:58:25;;;;;;;11.40;2.42;;;18.70;92.20;;;;;;5043744;28;20049;-68
2023/05/20 12:00:51;;;;;;;7.95;2.15;;;18.80;92.20;;;;;;5043730;28;20614;-65
2023/05/20 12:03:17;;;;;;;20.58;2.78;;;18.80;92.90;;;;;;5050102;28;20403;-69
2023/05/20 12:05:43;;;;;;;8.70;2.20;;;18.90;93.10;;;;;;5059653;28;20036;-67
2023/05/20 12:08:08;;;;;;;6.35;2.20;;;18.80;92.70;;;;;;5044669;28;20069;-66
2023/05/20 12:10:36;;;;;;;6.43;2.30;;;18.70;92.60;;;;;;5027752;28;20546;-66
2023/05/20 12:13:02;;;;;;;7.32;2.20;;;18.70;92.60;;;;;;5061756;28;20074;-67
2023/05/20 12:15:29;;;;;;;8.68;2.47;;;18.80;93.40;;;;;;5046345;28;20040;-67
2023/05/20 12:17:55;;;;;;;5.03;2.00;;;18.80;93.20;;;;;;5045954;28;20045;-65
2023/05/20 12:20:22;;;;;;;10.60;2.25;;;18.90;92.20;;;;;;5046772;28;20040;-65
2023/05/20 12:22:48;;;;;;;6.22;2.30;;;18.80;92.30;;;;;;5062812;28;20117;-67
2023/05/20 12:25:16;;;;;;;7.97;2.80;;;18.60;92.60;;;;;;5063102;28;20041;-66
2023/05/20 12:27:46;;;;;;;5.63;2.30;;;18.30;92.60;;;;;;5092876;28;20036;-66
2023/05/20 12:30:15;;;;;;;6.03;2.20;;;18.20;93.60;;;;;;5065052;28;20037;-66
2023/05/20 12:32:42;;;;;;;7.43;2.60;;;18.20;93.10;;;;;;5062645;28;20483;-64
2023/05/20 12:35:09;;;;;;;8.48;2.85;;;18.20;93.30;;;;;;5064678;28;20040;-67
2023/05/20 12:37:40;;;;;;;6.05;2.53;;;18.20;92.90;;;;;;5046398;28;20040;-67
2023/05/20 12:40:07;;;;;;;9.20;2.42;;;18.20;92.70;;;;;;5064148;28;20045;-69
2023/05/20 12:42:39;;;;;;;7.68;2.78;;;18.10;93.20;;;;;;5044495;28;20037;-69